Alpine, Mississippi
Current Conditions -  °F | °C
As of 6:53 PM on Monday 20 Oct 2014 (Local Time) from KTUP Reporting Station
Clear Clear  
Wind Chill: 17°   Ceiling: Unl
Heat Index: 17°   Visibility: 10mi
Dew Point: 11°   Wind: 3mph
Humidity: 67%   Direction: 330°NNW
Pressure: 30.02"   Gusts: NA
Location:  34.4333°N, 88.8629°W
Report Text: KTUP 202353Z 33003KT 10SM CLR 17/11 A3002 RMK AO2 SLP165 T01720111 10228 20172 53003 $
Loading
Personal Weather Stations






























Interactive Weather Map
Tropical Storm Tracking
New forecast layout! Learn more

10-Day Weather Forecast

Advertisements
Track Severe Weather on mobile